sensor_id;sensor_type;location;lat;lon;timestamp;P1;durP1;ratioP1;P2;durP2;ratioP2
5890;SDS011;2971;52.420;7.080;2024-02-26T00:02:20;12.57;;;11.20;;
5890;SDS011;2971;52.420;7.080;2024-02-26T00:04:46;12.00;;;10.80;;
5890;SDS011;2971;52.420;7.080;2024-02-26T00:07:11;12.13;;;10.63;;
5890;SDS011;2971;52.420;7.080;2024-02-26T00:09:37;12.17;;;10.90;;
5890;SDS011;2971;52.420;7.080;2024-02-26T00:12:04;12.63;;;11.33;;
5890;SDS011;2971;52.420;7.080;2024-02-26T00:14:30;13.20;;;11.87;;
5890;SDS011;2971;52.420;7.080;2024-02-26T00:16:55;14.13;;;12.00;;
5890;SDS011;2971;52.420;7.080;2024-02-26T00:19:21;15.27;;;13.47;;
5890;SDS011;2971;52.420;7.080;2024-02-26T00:21:46;15.07;;;12.17;;
5890;SDS011;2971;52.420;7.080;2024-02-26T00:24:12;14.93;;;12.17;;
5890;SDS011;2971;52.420;7.080;2024-02-26T00:26:38;13.23;;;11.83;;
5890;SDS011;2971;52.420;7.080;2024-02-26T00:29:05;14.73;;;12.37;;
5890;SDS011;2971;52.420;7.080;2024-02-26T00:31:30;14.53;;;12.63;;
5890;SDS011;2971;52.420;7.080;2024-02-26T00:33:56;14.87;;;12.43;;
5890;SDS011;2971;52.420;7.080;2024-02-26T00:36:22;13.83;;;12.43;;
5890;SDS011;2971;52.420;7.080;2024-02-26T00:38:47;13.67;;;12.27;;
5890;SDS011;2971;52.420;7.080;2024-02-26T00:41:16;13.47;;;11.80;;
5890;SDS011;2971;52.420;7.080;2024-02-26T00:43:41;12.93;;;11.57;;
5890;SDS011;2971;52.420;7.080;2024-02-26T00:46:09;14.50;;;11.93;;
5890;SDS011;2971;52.420;7.080;2024-02-26T00:48:34;12.60;;;11.40;;
5890;SDS011;2971;52.420;7.080;2024-02-26T00:51:00;14.13;;;11.80;;
5890;SDS011;2971;52.420;7.080;2024-02-26T00:53:25;12.90;;;11.60;;
5890;SDS011;2971;52.420;7.080;2024-02-26T00:55:51;12.77;;;11.47;;
5890;SDS011;2971;52.420;7.080;2024-02-26T00:58:17;13.47;;;11.50;;
5890;SDS011;2971;52.420;7.080;2024-02-26T01:00:42;12.50;;;11.20;;
5890;SDS011;2971;52.420;7.080;2024-02-26T01:03:09;13.33;;;11.93;;
5890;SDS011;2971;52.420;7.080;2024-02-26T01:05:35;12.90;;;11.60;;
5890;SDS011;2971;52.420;7.080;2024-02-26T01:08:01;12.53;;;11.20;;
5890;SDS011;2971;52.420;7.080;2024-02-26T01:10:27;12.93;;;11.23;;
5890;SDS011;2971;52.420;7.080;2024-02-26T01:12:53;12.33;;;11.13;;
5890;SDS011;2971;52.420;7.080;2024-02-26T01:15:18;14.30;;;12.13;;
5890;SDS011;2971;52.420;7.080;2024-02-26T01:17:47;14.30;;;11.27;;
5890;SDS011;2971;52.420;7.080;2024-02-26T01:20:14;13.30;;;11.50;;
5890;SDS011;2971;52.420;7.080;2024-02-26T01:22:39;13.50;;;12.10;;
5890;SDS011;2971;52.420;7.080;2024-02-26T01:25:06;13.07;;;11.60;;
5890;SDS011;2971;52.420;7.080;2024-02-26T01:27:32;12.87;;;11.50;;
5890;SDS011;2971;52.420;7.080;2024-02-26T01:29:58;13.50;;;12.10;;
5890;SDS011;2971;52.420;7.080;2024-02-26T01:32:23;15.00;;;12.70;;
5890;SDS011;2971;52.420;7.080;2024-02-26T01:34:49;13.20;;;11.80;;
5890;SDS011;2971;52.420;7.080;2024-02-26T01:37:16;15.63;;;12.90;;
5890;SDS011;2971;52.420;7.080;2024-02-26T01:39:41;17.17;;;13.30;;
5890;SDS011;2971;52.420;7.080;2024-02-26T01:42:07;15.17;;;13.57;;
5890;SDS011;2971;52.420;7.080;2024-02-26T01:44:33;14.17;;;12.50;;
5890;SDS011;2971;52.420;7.080;2024-02-26T01:46:58;16.07;;;13.27;;
5890;SDS011;2971;52.420;7.080;2024-02-26T01:49:26;15.03;;;13.10;;
5890;SDS011;2971;52.420;7.080;2024-02-26T01:51:52;14.70;;;13.10;;
5890;SDS011;2971;52.420;7.080;2024-02-26T01:54:19;15.03;;;12.93;;
5890;SDS011;2971;52.420;7.080;2024-02-26T01:56:45;15.83;;;13.50;;
5890;SDS011;2971;52.420;7.080;2024-02-26T01:59:11;13.97;;;12.57;;
5890;SDS011;2971;52.420;7.080;2024-02-26T02:01:36;15.07;;;12.80;;
5890;SDS011;2971;52.420;7.080;2024-02-26T02:04:03;15.10;;;13.47;;
5890;SDS011;2971;52.420;7.080;2024-02-26T02:06:28;16.70;;;12.97;;
5890;SDS011;2971;52.420;7.080;2024-02-26T02:08:54;16.20;;;13.77;;
5890;SDS011;2971;52.420;7.080;2024-02-26T02:11:21;15.00;;;13.40;;
5890;SDS011;2971;52.420;7.080;2024-02-26T02:13:47;15.07;;;13.47;;
5890;SDS011;2971;52.420;7.080;2024-02-26T02:16:12;14.37;;;12.90;;
5890;SDS011;2971;52.420;7.080;2024-02-26T02:18:38;15.30;;;12.83;;
5890;SDS011;2971;52.420;7.080;2024-02-26T02:21:05;13.83;;;12.43;;
5890;SDS011;2971;52.420;7.080;2024-02-26T02:23:31;14.50;;;12.23;;
5890;SDS011;2971;52.420;7.080;2024-02-26T02:25:57;14.17;;;12.63;;
5890;SDS011;2971;52.420;7.080;2024-02-26T02:28:23;13.50;;;12.07;;
5890;SDS011;2971;52.420;7.080;2024-02-26T02:30:49;13.47;;;12.07;;
5890;SDS011;2971;52.420;7.080;2024-02-26T02:33:14;14.53;;;12.27;;
5890;SDS011;2971;52.420;7.080;2024-02-26T02:35:40;14.50;;;12.33;;
5890;SDS011;2971;52.420;7.080;2024-02-26T02:38:07;13.13;;;11.77;;
5890;SDS011;2971;52.420;7.080;2024-02-26T02:40:33;12.80;;;11.50;;
5890;SDS011;2971;52.420;7.080;2024-02-26T02:42:58;12.13;;;10.83;;
5890;SDS011;2971;52.420;7.080;2024-02-26T02:45:25;13.47;;;11.53;;
5890;SDS011;2971;52.420;7.080;2024-02-26T02:47:50;13.17;;;11.50;;
5890;SDS011;2971;52.420;7.080;2024-02-26T02:50:16;12.53;;;11.00;;
5890;SDS011;2971;52.420;7.080;2024-02-26T02:52:42;12.57;;;10.97;;
5890;SDS011;2971;52.420;7.080;2024-02-26T02:55:09;12.67;;;11.13;;
5890;SDS011;2971;52.420;7.080;2024-02-26T02:57:34;12.60;;;11.30;;
5890;SDS011;2971;52.420;7.080;2024-02-26T03:00:06;12.83;;;10.90;;
5890;SDS011;2971;52.420;7.080;2024-02-26T03:02:32;12.90;;;10.90;;
5890;SDS011;2971;52.420;7.080;2024-02-26T03:04:58;11.90;;;10.70;;
5890;SDS011;2971;52.420;7.080;2024-02-26T03:07:23;12.20;;;10.97;;
5890;SDS011;2971;52.420;7.080;2024-02-26T03:09:49;11.33;;;10.17;;
5890;SDS011;2971;52.420;7.080;2024-02-26T03:12:16;13.27;;;10.10;;
5890;SDS011;2971;52.420;7.080;2024-02-26T03:14:41;11.47;;;10.27;;
5890;SDS011;2971;52.420;7.080;2024-02-26T03:17:07;12.50;;;10.10;;
5890;SDS011;2971;52.420;7.080;2024-02-26T03:19:33;12.07;;;10.10;;
5890;SDS011;2971;52.420;7.080;2024-02-26T03:21:58;11.47;;;10.13;;
5890;SDS011;2971;52.420;7.080;2024-02-26T03:24:24;11.27;;;9.50;;
5890;SDS011;2971;52.420;7.080;2024-02-26T03:26:49;9.77;;;8.87;;
5890;SDS011;2971;52.420;7.080;2024-02-26T03:29:18;10.53;;;9.53;;
5890;SDS011;2971;52.420;7.080;2024-02-26T03:31:43;12.27;;;9.20;;
5890;SDS011;2971;52.420;7.080;2024-02-26T03:34:09;10.47;;;9.37;;
5890;SDS011;2971;52.420;7.080;2024-02-26T03:36:34;10.57;;;9.30;;
5890;SDS011;2971;52.420;7.080;2024-02-26T03:39:00;10.70;;;9.43;;
5890;SDS011;2971;52.420;7.080;2024-02-26T03:41:26;10.30;;;9.30;;
5890;SDS011;2971;52.420;7.080;2024-02-26T03:43:52;12.13;;;9.63;;
5890;SDS011;2971;52.420;7.080;2024-02-26T03:46:19;10.83;;;9.27;;
5890;SDS011;2971;52.420;7.080;2024-02-26T03:48:44;10.20;;;9.07;;
5890;SDS011;2971;52.420;7.080;2024-02-26T03:51:10;10.30;;;8.90;;
5890;SDS011;2971;52.420;7.080;2024-02-26T03:53:35;10.00;;;8.67;;
5890;SDS011;2971;52.420;7.080;2024-02-26T03:56:02;9.57;;;8.57;;
5890;SDS011;2971;52.420;7.080;2024-02-26T03:58:29;9.63;;;8.57;;
5890;SDS011;2971;52.420;7.080;2024-02-26T04:00:54;9.23;;;8.33;;
5890;SDS011;2971;52.420;7.080;2024-02-26T04:03:21;10.20;;;9.00;;
5890;SDS011;2971;52.420;7.080;2024-02-26T04:05:47;9.80;;;8.63;;
5890;SDS011;2971;52.420;7.080;2024-02-26T04:08:13;10.10;;;8.57;;
5890;SDS011;2971;52.420;7.080;2024-02-26T04:10:38;9.80;;;8.57;;
5890;SDS011;2971;52.420;7.080;2024-02-26T04:13:04;8.70;;;7.83;;
5890;SDS011;2971;52.420;7.080;2024-02-26T04:15:31;9.27;;;8.30;;
5890;SDS011;2971;52.420;7.080;2024-02-26T04:17:57;9.57;;;7.93;;
5890;SDS011;2971;52.420;7.080;2024-02-26T04:20:24;9.67;;;8.67;;
5890;SDS011;2971;52.420;7.080;2024-02-26T04:22:49;9.40;;;8.43;;
5890;SDS011;2971;52.420;7.080;2024-02-26T04:25:15;9.47;;;8.57;;
5890;SDS011;2971;52.420;7.080;2024-02-26T04:27:40;8.60;;;7.70;;
5890;SDS011;2971;52.420;7.080;2024-02-26T04:30:07;10.40;;;8.00;;
5890;SDS011;2971;52.420;7.080;2024-02-26T04:32:33;9.43;;;8.40;;
5890;SDS011;2971;52.420;7.080;2024-02-26T04:34:59;9.83;;;7.83;;
5890;SDS011;2971;52.420;7.080;2024-02-26T04:37:26;9.33;;;8.00;;
5890;SDS011;2971;52.420;7.080;2024-02-26T04:39:57;8.73;;;7.90;;
5890;SDS011;2971;52.420;7.080;2024-02-26T04:42:23;9.07;;;8.10;;
5890;SDS011;2971;52.420;7.080;2024-02-26T04:44:48;9.20;;;8.30;;
5890;SDS011;2971;52.420;7.080;2024-02-26T04:47:14;9.03;;;8.13;;
5890;SDS011;2971;52.420;7.080;2024-02-26T04:49:40;8.93;;;8.10;;
5890;SDS011;2971;52.420;7.080;2024-02-26T04:52:06;9.67;;;8.30;;
5890;SDS011;2971;52.420;7.080;2024-02-26T04:54:33;9.43;;;8.30;;
5890;SDS011;2971;52.420;7.080;2024-02-26T04:56:58;9.10;;;8.23;;
5890;SDS011;2971;52.420;7.080;2024-02-26T04:59:24;9.57;;;8.57;;
5890;SDS011;2971;52.420;7.080;2024-02-26T05:01:50;10.20;;;9.20;;
5890;SDS011;2971;52.420;7.080;2024-02-26T05:04:17;10.77;;;9.67;;
5890;SDS011;2971;52.420;7.080;2024-02-26T05:06:43;10.50;;;9.07;;
5890;SDS011;2971;52.420;7.080;2024-02-26T05:09:09;10.73;;;9.63;;
5890;SDS011;2971;52.420;7.080;2024-02-26T05:11:36;11.07;;;9.97;;
5890;SDS011;2971;52.420;7.080;2024-02-26T05:14:01;10.40;;;9.23;;
5890;SDS011;2971;52.420;7.080;2024-02-26T05:16:28;10.30;;;9.27;;
5890;SDS011;2971;52.420;7.080;2024-02-26T05:18:55;11.77;;;10.60;;
5890;SDS011;2971;52.420;7.080;2024-02-26T05:21:21;10.90;;;9.43;;
5890;SDS011;2971;52.420;7.080;2024-02-26T05:23:46;11.00;;;8.93;;
5890;SDS011;2971;52.420;7.080;2024-02-26T05:26:18;11.43;;;9.30;;
5890;SDS011;2971;52.420;7.080;2024-02-26T05:28:46;10.30;;;9.30;;
5890;SDS011;2971;52.420;7.080;2024-02-26T05:31:12;10.90;;;9.80;;
5890;SDS011;2971;52.420;7.080;2024-02-26T05:33:38;11.70;;;10.60;;
5890;SDS011;2971;52.420;7.080;2024-02-26T05:36:03;12.20;;;10.90;;
5890;SDS011;2971;52.420;7.080;2024-02-26T05:38:30;12.20;;;10.77;;
5890;SDS011;2971;52.420;7.080;2024-02-26T05:40:56;12.20;;;10.93;;
5890;SDS011;2971;52.420;7.080;2024-02-26T05:43:22;13.13;;;11.83;;
5890;SDS011;2971;52.420;7.080;2024-02-26T05:45:49;12.97;;;11.57;;
5890;SDS011;2971;52.420;7.080;2024-02-26T05:48:14;15.23;;;13.63;;
5890;SDS011;2971;52.420;7.080;2024-02-26T05:50:40;14.80;;;13.13;;
5890;SDS011;2971;52.420;7.080;2024-02-26T05:53:05;15.40;;;13.70;;
5890;SDS011;2971;52.420;7.080;2024-02-26T05:55:31;15.93;;;14.30;;
5890;SDS011;2971;52.420;7.080;2024-02-26T05:57:57;18.60;;;16.23;;
5890;SDS011;2971;52.420;7.080;2024-02-26T06:00:22;17.07;;;15.37;;
5890;SDS011;2971;52.420;7.080;2024-02-26T06:02:49;17.00;;;15.30;;
5890;SDS011;2971;52.420;7.080;2024-02-26T06:05:15;16.67;;;15.00;;
5890;SDS011;2971;52.420;7.080;2024-02-26T06:07:40;15.13;;;13.53;;
5890;SDS011;2971;52.420;7.080;2024-02-26T06:10:06;16.30;;;14.60;;
5890;SDS011;2971;52.420;7.080;2024-02-26T06:12:34;17.80;;;16.00;;
5890;SDS011;2971;52.420;7.080;2024-02-26T06:15:00;17.63;;;15.43;;
5890;SDS011;2971;52.420;7.080;2024-02-26T06:17:26;17.93;;;16.03;;
5890;SDS011;2971;52.420;7.080;2024-02-26T06:19:54;17.43;;;15.67;;
5890;SDS011;2971;52.420;7.080;2024-02-26T06:22:19;15.50;;;13.80;;
5890;SDS011;2971;52.420;7.080;2024-02-26T06:24:45;17.20;;;15.40;;
5890;SDS011;2971;52.420;7.080;2024-02-26T06:27:10;17.03;;;15.23;;
5890;SDS011;2971;52.420;7.080;2024-02-26T06:29:36;19.67;;;16.27;;
5890;SDS011;2971;52.420;7.080;2024-02-26T06:32:02;18.37;;;16.40;;
5890;SDS011;2971;52.420;7.080;2024-02-26T06:34:28;16.50;;;14.80;;
5890;SDS011;2971;52.420;7.080;2024-02-26T06:36:55;16.77;;;14.97;;
5890;SDS011;2971;52.420;7.080;2024-02-26T06:39:20;18.90;;;15.77;;
5890;SDS011;2971;52.420;7.080;2024-02-26T06:41:46;17.60;;;15.40;;
5890;SDS011;2971;52.420;7.080;2024-02-26T06:44:12;17.37;;;15.57;;
5890;SDS011;2971;52.420;7.080;2024-02-26T06:46:38;20.10;;;16.27;;
5890;SDS011;2971;52.420;7.080;2024-02-26T06:49:04;17.33;;;15.53;;
5890;SDS011;2971;52.420;7.080;2024-02-26T06:51:30;17.77;;;15.33;;
5890;SDS011;2971;52.420;7.080;2024-02-26T06:53:57;18.07;;;16.07;;
5890;SDS011;2971;52.420;7.080;2024-02-26T06:56:23;17.63;;;15.80;;
5890;SDS011;2971;52.420;7.080;2024-02-26T06:58:48;17.33;;;15.33;;
5890;SDS011;2971;52.420;7.080;2024-02-26T07:01:14;18.60;;;16.50;;
5890;SDS011;2971;52.420;7.080;2024-02-26T07:03:40;20.23;;;17.23;;
5890;SDS011;2971;52.420;7.080;2024-02-26T07:06:05;17.90;;;16.00;;
5890;SDS011;2971;52.420;7.080;2024-02-26T07:08:31;19.40;;;16.93;;
5890;SDS011;2971;52.420;7.080;2024-02-26T07:10:58;18.23;;;16.27;;
5890;SDS011;2971;52.420;7.080;2024-02-26T07:13:24;17.87;;;15.67;;
5890;SDS011;2971;52.420;7.080;2024-02-26T07:15:50;17.53;;;15.50;;
5890;SDS011;2971;52.420;7.080;2024-02-26T07:18:15;19.97;;;14.93;;
5890;SDS011;2971;52.420;7.080;2024-02-26T07:20:41;18.53;;;15.00;;
5890;SDS011;2971;52.420;7.080;2024-02-26T07:23:06;18.57;;;15.73;;
5890;SDS011;2971;52.420;7.080;2024-02-26T07:25:32;16.83;;;13.90;;
5890;SDS011;2971;52.420;7.080;2024-02-26T07:27:59;16.57;;;13.87;;
5890;SDS011;2971;52.420;7.080;2024-02-26T07:30:24;17.70;;;14.83;;
5890;SDS011;2971;52.420;7.080;2024-02-26T07:32:50;16.57;;;14.13;;
5890;SDS011;2971;52.420;7.080;2024-02-26T07:35:15;18.30;;;13.97;;
5890;SDS011;2971;52.420;7.080;2024-02-26T07:37:42;16.90;;;14.77;;
5890;SDS011;2971;52.420;7.080;2024-02-26T07:40:08;16.67;;;14.03;;
5890;SDS011;2971;52.420;7.080;2024-02-26T07:42:34;15.60;;;14.00;;
5890;SDS011;2971;52.420;7.080;2024-02-26T07:45:01;16.57;;;14.30;;
5890;SDS011;2971;52.420;7.080;2024-02-26T07:47:27;15.70;;;14.10;;
5890;SDS011;2971;52.420;7.080;2024-02-26T07:49:53;15.23;;;13.63;;
5890;SDS011;2971;52.420;7.080;2024-02-26T07:52:18;17.60;;;13.87;;
5890;SDS011;2971;52.420;7.080;2024-02-26T07:54:44;15.43;;;13.73;;
5890;SDS011;2971;52.420;7.080;2024-02-26T07:57:09;15.60;;;13.90;;
5890;SDS011;2971;52.420;7.080;2024-02-26T07:59:35;15.33;;;13.73;;
5890;SDS011;2971;52.420;7.080;2024-02-26T08:02:02;14.93;;;13.27;;
5890;SDS011;2971;52.420;7.080;2024-02-26T08:04:28;15.50;;;12.97;;
5890;SDS011;2971;52.420;7.080;2024-02-26T08:06:54;16.57;;;13.73;;
5890;SDS011;2971;52.420;7.080;2024-02-26T08:09:19;15.87;;;13.13;;
5890;SDS011;2971;52.420;7.080;2024-02-26T08:11:45;15.37;;;13.53;;
5890;SDS011;2971;52.420;7.080;2024-02-26T08:14:10;14.37;;;12.50;;
5890;SDS011;2971;52.420;7.080;2024-02-26T08:16:36;15.60;;;13.20;;
5890;SDS011;2971;52.420;7.080;2024-02-26T08:19:03;14.97;;;13.33;;
5890;SDS011;2971;52.420;7.080;2024-02-26T08:21:28;17.43;;;12.77;;
5890;SDS011;2971;52.420;7.080;2024-02-26T08:23:54;15.80;;;13.97;;
5890;SDS011;2971;52.420;7.080;2024-02-26T08:26:20;16.43;;;14.43;;
5890;SDS011;2971;52.420;7.080;2024-02-26T08:28:47;15.00;;;13.33;;
5890;SDS011;2971;52.420;7.080;2024-02-26T08:31:14;15.23;;;13.60;;
5890;SDS011;2971;52.420;7.080;2024-02-26T08:33:39;17.10;;;14.60;;
5890;SDS011;2971;52.420;7.080;2024-02-26T08:36:07;15.93;;;14.07;;
5890;SDS011;2971;52.420;7.080;2024-02-26T08:38:32;16.97;;;14.50;;
5890;SDS011;2971;52.420;7.080;2024-02-26T08:41:00;17.77;;;15.83;;
5890;SDS011;2971;52.420;7.080;2024-02-26T08:43:25;19.93;;;15.87;;
5890;SDS011;2971;52.420;7.080;2024-02-26T08:45:51;20.20;;;17.00;;
5890;SDS011;2971;52.420;7.080;2024-02-26T08:48:17;20.07;;;17.50;;
5890;SDS011;2971;52.420;7.080;2024-02-26T08:50:43;20.73;;;16.93;;
5890;SDS011;2971;52.420;7.080;2024-02-26T08:53:10;19.43;;;17.30;;
5890;SDS011;2971;52.420;7.080;2024-02-26T08:55:36;22.07;;;19.00;;
5890;SDS011;2971;52.420;7.080;2024-02-26T08:58:01;20.90;;;18.50;;
5890;SDS011;2971;52.420;7.080;2024-02-26T09:00:27;22.33;;;19.47;;
5890;SDS011;2971;52.420;7.080;2024-02-26T09:02:52;24.20;;;19.53;;
5890;SDS011;2971;52.420;7.080;2024-02-26T09:05:18;25.30;;;21.10;;
5890;SDS011;2971;52.420;7.080;2024-02-26T09:07:43;25.97;;;21.03;;
5890;SDS011;2971;52.420;7.080;2024-02-26T09:10:10;25.03;;;21.50;;
5890;SDS011;2971;52.420;7.080;2024-02-26T09:12:36;26.27;;;21.77;;
5890;SDS011;2971;52.420;7.080;2024-02-26T09:15:02;25.60;;;21.20;;
5890;SDS011;2971;52.420;7.080;2024-02-26T09:17:28;26.30;;;22.33;;
5890;SDS011;2971;52.420;7.080;2024-02-26T09:19:54;28.23;;;22.57;;
5890;SDS011;2971;52.420;7.080;2024-02-26T09:22:20;27.67;;;22.73;;
5890;SDS011;2971;52.420;7.080;2024-02-26T09:24:45;28.10;;;23.57;;
5890;SDS011;2971;52.420;7.080;2024-02-26T09:27:12;27.90;;;23.13;;
5890;SDS011;2971;52.420;7.080;2024-02-26T09:29:38;29.13;;;24.13;;
5890;SDS011;2971;52.420;7.080;2024-02-26T09:32:03;29.87;;;24.80;;
5890;SDS011;2971;52.420;7.080;2024-02-26T09:34:30;29.00;;;24.70;;
5890;SDS011;2971;52.420;7.080;2024-02-26T09:36:55;31.73;;;26.33;;
5890;SDS011;2971;52.420;7.080;2024-02-26T09:39:21;28.70;;;24.63;;
5890;SDS011;2971;52.420;7.080;2024-02-26T09:41:46;28.97;;;25.53;;
5890;SDS011;2971;52.420;7.080;2024-02-26T09:44:14;30.90;;;25.83;;
5890;SDS011;2971;52.420;7.080;2024-02-26T09:46:43;30.40;;;26.03;;
5890;SDS011;2971;52.420;7.080;2024-02-26T09:49:09;30.00;;;25.80;;
5890;SDS011;2971;52.420;7.080;2024-02-26T09:51:36;32.17;;;26.43;;
5890;SDS011;2971;52.420;7.080;2024-02-26T09:54:02;29.67;;;24.87;;
5890;SDS011;2971;52.420;7.080;2024-02-26T09:56:27;28.20;;;24.00;;
5890;SDS011;2971;52.420;7.080;2024-02-26T09:58:54;25.70;;;22.50;;
5890;SDS011;2971;52.420;7.080;2024-02-26T10:01:22;25.37;;;22.17;;
5890;SDS011;2971;52.420;7.080;2024-02-26T10:03:51;24.50;;;21.33;;
5890;SDS011;2971;52.420;7.080;2024-02-26T10:06:20;26.80;;;22.13;;
5890;SDS011;2971;52.420;7.080;2024-02-26T10:08:46;23.93;;;21.03;;
5890;SDS011;2971;52.420;7.080;2024-02-26T10:11:13;21.40;;;18.70;;
5890;SDS011;2971;52.420;7.080;2024-02-26T10:13:40;20.03;;;17.80;;
5890;SDS011;2971;52.420;7.080;2024-02-26T10:16:06;19.43;;;17.10;;
5890;SDS011;2971;52.420;7.080;2024-02-26T10:18:47;18.43;;;15.60;;
5890;SDS011;2971;52.420;7.080;2024-02-26T10:21:13;17.90;;;15.23;;
5890;SDS011;2971;52.420;7.080;2024-02-26T10:23:41;16.83;;;14.97;;
5890;SDS011;2971;52.420;7.080;2024-02-26T10:26:07;17.60;;;14.67;;
5890;SDS011;2971;52.420;7.080;2024-02-26T10:28:33;16.43;;;14.63;;
5890;SDS011;2971;52.420;7.080;2024-02-26T10:30:59;15.30;;;13.70;;
5890;SDS011;2971;52.420;7.080;2024-02-26T10:33:25;15.70;;;13.90;;
5890;SDS011;2971;52.420;7.080;2024-02-26T10:35:52;14.53;;;12.20;;
5890;SDS011;2971;52.420;7.080;2024-02-26T10:38:19;14.53;;;12.23;;
5890;SDS011;2971;52.420;7.080;2024-02-26T10:40:45;15.30;;;13.03;;
5890;SDS011;2971;52.420;7.080;2024-02-26T10:43:11;14.57;;;12.57;;
5890;SDS011;2971;52.420;7.080;2024-02-26T10:45:38;15.47;;;13.53;;
5890;SDS011;2971;52.420;7.080;2024-02-26T10:48:09;14.80;;;13.30;;
5890;SDS011;2971;52.420;7.080;2024-02-26T10:50:35;16.00;;;13.53;;
5890;SDS011;2971;52.420;7.080;2024-02-26T10:53:01;13.87;;;12.47;;
5890;SDS011;2971;52.420;7.080;2024-02-26T10:55:28;14.80;;;13.30;;
5890;SDS011;2971;52.420;7.080;2024-02-26T10:57:55;15.43;;;12.90;;
5890;SDS011;2971;52.420;7.080;2024-02-26T11:00:21;14.07;;;12.67;;
5890;SDS011;2971;52.420;7.080;2024-02-26T11:02:46;13.70;;;12.30;;
5890;SDS011;2971;52.420;7.080;2024-02-26T11:05:12;14.80;;;13.30;;
5890;SDS011;2971;52.420;7.080;2024-02-26T11:07:38;13.73;;;12.33;;
5890;SDS011;2971;52.420;7.080;2024-02-26T11:10:06;13.63;;;12.33;;
5890;SDS011;2971;52.420;7.080;2024-02-26T11:12:33;12.93;;;11.70;;
5890;SDS011;2971;52.420;7.080;2024-02-26T11:15:03;12.90;;;11.63;;
5890;SDS011;2971;52.420;7.080;2024-02-26T11:17:29;12.83;;;11.60;;
5890;SDS011;2971;52.420;7.080;2024-02-26T11:19:56;13.87;;;12.57;;
5890;SDS011;2971;52.420;7.080;2024-02-26T11:22:23;13.10;;;11.87;;
5890;SDS011;2971;52.420;7.080;2024-02-26T11:24:51;13.23;;;11.93;;
5890;SDS011;2971;52.420;7.080;2024-02-26T11:27:18;13.70;;;12.30;;
5890;SDS011;2971;52.420;7.080;2024-02-26T11:29:47;13.10;;;11.80;;
5890;SDS011;2971;52.420;7.080;2024-02-26T11:32:13;12.63;;;11.43;;
5890;SDS011;2971;52.420;7.080;2024-02-26T11:34:39;12.97;;;11.67;;
5890;SDS011;2971;52.420;7.080;2024-02-26T11:37:08;12.93;;;11.63;;
5890;SDS011;2971;52.420;7.080;2024-02-26T11:39:35;12.80;;;11.57;;
5890;SDS011;2971;52.420;7.080;2024-02-26T11:42:04;14.00;;;12.50;;
5890;SDS011;2971;52.420;7.080;2024-02-26T11:44:31;12.70;;;11.40;;
5890;SDS011;2971;52.420;7.080;2024-02-26T11:46:57;12.30;;;11.10;;
5890;SDS011;2971;52.420;7.080;2024-02-26T11:49:30;12.80;;;11.50;;
5890;SDS011;2971;52.420;7.080;2024-02-26T11:51:57;12.13;;;10.90;;
5890;SDS011;2971;52.420;7.080;2024-02-26T11:54:38;12.47;;;11.23;;
5890;SDS011;2971;52.420;7.080;2024-02-26T11:57:21;13.20;;;11.80;;
5890;SDS011;2971;52.420;7.080;2024-02-26T11:59:52;11.37;;;10.27;;
5890;SDS011;2971;52.420;7.080;2024-02-26T12:05:10;12.67;;;11.37;;
5890;SDS011;2971;52.420;7.080;2024-02-26T12:07:42;11.97;;;10.67;;
5890;SDS011;2971;52.420;7.080;2024-02-26T12:10:13;11.80;;;10.60;;
5890;SDS011;2971;52.420;7.080;2024-02-26T12:12:41;11.67;;;10.53;;
5890;SDS011;2971;52.420;7.080;2024-02-26T12:15:08;11.67;;;9.83;;
5890;SDS011;2971;52.420;7.080;2024-02-26T12:17:34;11.67;;;10.47;;
5890;SDS011;2971;52.420;7.080;2024-02-26T12:20:07;11.77;;;10.53;;
5890;SDS011;2971;52.420;7.080;2024-02-26T12:22:34;11.00;;;9.90;;
5890;SDS011;2971;52.420;7.080;2024-02-26T12:25:02;11.40;;;10.30;;
5890;SDS011;2971;52.420;7.080;2024-02-26T12:27:28;11.13;;;9.80;;
5890;SDS011;2971;52.420;7.080;2024-02-26T12:29:54;11.70;;;10.50;;
5890;SDS011;2971;52.420;7.080;2024-02-26T12:32:20;11.00;;;9.90;;
5890;SDS011;2971;52.420;7.080;2024-02-26T12:34:47;10.50;;;9.50;;
5890;SDS011;2971;52.420;7.080;2024-02-26T12:37:13;10.80;;;9.53;;
5890;SDS011;2971;52.420;7.080;2024-02-26T12:39:38;10.43;;;9.43;;
5890;SDS011;2971;52.420;7.080;2024-02-26T12:42:04;11.27;;;9.70;;
5890;SDS011;2971;52.420;7.080;2024-02-26T12:44:31;10.00;;;8.97;;
5890;SDS011;2971;52.420;7.080;2024-02-26T12:46:59;10.07;;;9.07;;
5890;SDS011;2971;52.420;7.080;2024-02-26T12:49:26;10.93;;;9.23;;
5890;SDS011;2971;52.420;7.080;2024-02-26T12:51:52;9.73;;;8.83;;
5890;SDS011;2971;52.420;7.080;2024-02-26T12:54:17;9.60;;;8.70;;
5890;SDS011;2971;52.420;7.080;2024-02-26T12:56:43;10.67;;;9.30;;
5890;SDS011;2971;52.420;7.080;2024-02-26T12:59:09;9.97;;;9.07;;
5890;SDS011;2971;52.420;7.080;2024-02-26T13:01:35;10.00;;;9.00;;
5890;SDS011;2971;52.420;7.080;2024-02-26T13:04:01;10.03;;;9.03;;
5890;SDS011;2971;52.420;7.080;2024-02-26T13:06:32;10.90;;;9.80;;
5890;SDS011;2971;52.420;7.080;2024-02-26T13:08:59;10.30;;;9.20;;
5890;SDS011;2971;52.420;7.080;2024-02-26T13:11:26;11.23;;;10.13;;
5890;SDS011;2971;52.420;7.080;2024-02-26T13:13:54;11.43;;;10.33;;
5890;SDS011;2971;52.420;7.080;2024-02-26T13:16:19;11.47;;;10.37;;
5890;SDS011;2971;52.420;7.080;2024-02-26T13:18:49;10.43;;;9.50;;
5890;SDS011;2971;52.420;7.080;2024-02-26T13:21:15;10.93;;;9.93;;
5890;SDS011;2971;52.420;7.080;2024-02-26T13:23:43;9.53;;;8.63;;
5890;SDS011;2971;52.420;7.080;2024-02-26T13:26:11;10.27;;;9.03;;
5890;SDS011;2971;52.420;7.080;2024-02-26T13:28:37;9.73;;;8.83;;
5890;SDS011;2971;52.420;7.080;2024-02-26T13:31:03;10.03;;;9.03;;
5890;SDS011;2971;52.420;7.080;2024-02-26T13:33:31;9.77;;;8.80;;
5890;SDS011;2971;52.420;7.080;2024-02-26T13:35:57;9.57;;;8.67;;
5890;SDS011;2971;52.420;7.080;2024-02-26T13:38:23;9.97;;;9.07;;
5890;SDS011;2971;52.420;7.080;2024-02-26T13:40:51;9.97;;;8.97;;
5890;SDS011;2971;52.420;7.080;2024-02-26T13:43:18;9.90;;;8.90;;
5890;SDS011;2971;52.420;7.080;2024-02-26T13:45:44;10.67;;;9.60;;
5890;SDS011;2971;52.420;7.080;2024-02-26T13:48:10;10.43;;;9.43;;
5890;SDS011;2971;52.420;7.080;2024-02-26T13:50:36;9.37;;;8.47;;
5890;SDS011;2971;52.420;7.080;2024-02-26T13:53:02;9.60;;;8.60;;
5890;SDS011;2971;52.420;7.080;2024-02-26T13:55:29;10.10;;;9.10;;
5890;SDS011;2971;52.420;7.080;2024-02-26T13:57:58;10.27;;;9.27;;
5890;SDS011;2971;52.420;7.080;2024-02-26T14:00:26;10.50;;;9.57;;
5890;SDS011;2971;52.420;7.080;2024-02-26T14:02:52;9.73;;;8.83;;
5890;SDS011;2971;52.420;7.080;2024-02-26T14:05:17;10.00;;;9.00;;
5890;SDS011;2971;52.420;7.080;2024-02-26T14:07:43;10.03;;;9.10;;
5890;SDS011;2971;52.420;7.080;2024-02-26T14:10:09;10.43;;;9.50;;
5890;SDS011;2971;52.420;7.080;2024-02-26T14:12:37;10.77;;;9.77;;
5890;SDS011;2971;52.420;7.080;2024-02-26T14:15:04;10.50;;;9.40;;
5890;SDS011;2971;52.420;7.080;2024-02-26T14:17:32;10.63;;;9.60;;
5890;SDS011;2971;52.420;7.080;2024-02-26T14:19:57;10.80;;;9.70;;
5890;SDS011;2971;52.420;7.080;2024-02-26T14:22:23;9.80;;;8.90;;
5890;SDS011;2971;52.420;7.080;2024-02-26T14:24:48;10.27;;;9.27;;
5890;SDS011;2971;52.420;7.080;2024-02-26T14:27:15;10.77;;;9.80;;
5890;SDS011;2971;52.420;7.080;2024-02-26T14:29:42;10.33;;;9.33;;
5890;SDS011;2971;52.420;7.080;2024-02-26T14:32:09;10.77;;;9.77;;
5890;SDS011;2971;52.420;7.080;2024-02-26T14:34:35;10.87;;;9.80;;
5890;SDS011;2971;52.420;7.080;2024-02-26T14:37:01;11.10;;;10.00;;
5890;SDS011;2971;52.420;7.080;2024-02-26T14:39:27;11.03;;;9.93;;
5890;SDS011;2971;52.420;7.080;2024-02-26T14:41:52;10.77;;;9.77;;
5890;SDS011;2971;52.420;7.080;2024-02-26T14:44:18;11.13;;;10.13;;
5890;SDS011;2971;52.420;7.080;2024-02-26T14:46:43;11.40;;;10.30;;
5890;SDS011;2971;52.420;7.080;2024-02-26T14:49:10;12.30;;;11.17;;
5890;SDS011;2971;52.420;7.080;2024-02-26T14:51:37;12.27;;;11.07;;